Time;durP1;ratioP1;P1;durP2;ratioP2;P2;SDS_P1;SDS_P2;PMS_P1;PMS_P2;Temp;Humidity;BMP_temperature;BMP_pressure;BME280_temperature;BME280_humidity;BME280_pressure;Samples;Min_cycle;Max_cycle;Signal;HPM_P1;HPM_P2
2022/04/19 00:01:51;;;;;;;15.60;7.35;;;;;;;0.77;59.78;97199.06;1649810;87;21004;-81
2022/04/19 00:04:19;;;;;;;12.15;6.97;;;;;;;0.69;60.58;97200.81;1650304;87;21055;-81
2022/04/19 00:06:46;;;;;;;12.93;7.47;;;;;;;0.67;60.02;97196.48;1653025;86;21132;-82
2022/04/19 00:09:13;;;;;;;14.90;7.90;;;;;;;0.64;59.76;97194.75;1673261;86;21055;-81
2022/04/19 00:11:39;;;;;;;15.75;7.65;;;;;;;0.57;59.69;97192.59;1674602;86;21060;-80
2022/04/19 00:14:08;;;;;;;12.47;6.50;;;;;;;0.52;59.90;97185.22;1653963;86;21035;-81
2022/04/19 00:16:36;;;;;;;12.93;6.72;;;;;;;0.52;60.22;97190.43;1647046;86;21051;-81
2022/04/19 00:19:03;;;;;;;11.73;6.30;;;;;;;0.50;62.54;97186.97;1647314;87;21087;-80
2022/04/19 00:21:30;;;;;;;9.10;5.80;;;;;;;0.49;61.64;97189.13;1647467;86;21078;-81
2022/04/19 00:23:58;;;;;;;10.03;5.72;;;;;;;0.50;62.73;97189.58;1647248;87;21476;-80
2022/04/19 00:26:25;;;;;;;11.55;6.90;;;;;;;0.51;61.65;97190.00;1651490;86;21100;-81
2022/04/19 00:28:52;;;;;;;12.07;6.58;;;;;;;0.50;63.78;97189.58;1674641;86;21128;-80
2022/04/19 00:31:20;;;;;;;9.83;6.28;;;;;;;0.49;62.81;97191.73;1672505;86;21060;-81
2022/04/19 00:33:47;;;;;;;14.45;7.10;;;;;;;0.47;64.35;97193.48;1681894;85;21013;-80
2022/04/19 00:36:13;;;;;;;11.35;6.00;;;;;;;0.47;62.34;97189.58;1691458;85;21076;-80
2022/04/19 00:38:40;;;;;;;11.48;6.53;;;;;;;0.46;62.15;97192.61;1686290;85;21477;-80
2022/04/19 00:41:07;;;;;;;9.83;5.65;;;;;;;0.47;61.65;97196.97;1674882;86;21028;-80
2022/04/19 00:43:34;;;;;;;7.78;5.28;;;;;;;0.42;61.47;97196.54;1673961;86;21528;-80
2022/04/19 00:46:00;;;;;;;11.25;5.55;;;;;;;0.36;61.64;97196.98;1674610;86;21163;-80
2022/04/19 00:48:27;;;;;;;11.65;7.08;;;;;;;0.33;62.02;97200.04;1674439;86;21012;-80
2022/04/19 00:50:55;;;;;;;10.63;6.40;;;;;;;0.28;61.64;97190.06;1674522;86;21130;-80
2022/04/19 00:53:24;;;;;;;11.53;5.97;;;;;;;0.19;61.75;97191.80;1658305;86;21020;-81
2022/04/19 00:55:52;;;;;;;8.28;5.85;;;;;;;0.18;61.55;97183.55;1647500;87;21056;-80
2022/04/19 00:58:20;;;;;;;11.18;6.40;;;;;;;0.19;61.48;97185.28;1647204;87;21068;-80
2022/04/19 01:00:50;;;;;;;10.23;5.90;;;;;;;0.21;61.42;97187.44;1647408;87;21469;-80
2022/04/19 01:03:18;;;;;;;10.65;6.62;;;;;;;0.21;61.53;97186.13;1647436;87;21013;-80
2022/04/19 01:05:47;;;;;;;12.03;6.05;;;;;;;0.18;61.34;97184.86;1621938;85;21068;-81
2022/04/19 01:08:15;;;;;;;14.40;6.28;;;;;;;0.17;61.39;97179.64;1670743;86;21120;-80
2022/04/19 01:10:45;;;;;;;10.35;6.08;;;;;;;0.12;63.57;97174.42;1665140;85;21037;-80
2022/04/19 01:13:18;;;;;;;12.25;6.20;;;;;;;0.03;65.49;97183.58;1641761;86;21040;-80
2022/04/19 01:15:49;;;;;;;11.85;6.33;;;;;;;-0.03;64.35;97174.86;1663676;86;21072;-80
2022/04/19 01:18:20;;;;;;;9.78;6.28;;;;;;;-0.06;63.50;97180.52;1662436;86;21068;-80
2022/04/19 01:20:48;;;;;;;11.18;5.70;;;;;;;-0.14;64.44;97180.52;1626470;88;21068;-80
2022/04/19 01:23:22;;;;;;;12.15;6.50;;;;;;;-0.20;64.62;97179.23;1633725;87;21046;-80
2022/04/19 01:25:46;;;;;;;13.28;7.25;;;;;;;-0.25;64.10;97183.56;1632104;88;21413;-80
2022/04/19 01:28:14;;;;;;;14.20;6.05;;;;;;;-0.29;63.98;97180.10;1633506;87;21057;-80
2022/04/19 01:30:45;;;;;;;9.90;5.60;;;;;;;-0.31;63.56;97172.28;1633557;88;21065;-80
2022/04/19 01:33:14;;;;;;;11.12;6.12;;;;;;;-0.35;63.44;97182.67;1633371;88;21055;-80
2022/04/19 01:35:42;;;;;;;12.00;5.78;;;;;;;-0.40;63.38;97177.48;1657979;86;21076;-80
2022/04/19 01:38:11;;;;;;;10.90;5.37;;;;;;;-0.42;63.69;97176.59;1663820;86;21069;-80
2022/04/19 01:40:39;;;;;;;10.00;5.37;;;;;;;-0.46;63.25;97167.92;1663320;86;21415;-80
2022/04/19 01:43:07;;;;;;;10.68;5.75;;;;;;;-0.52;63.86;97168.34;1663473;86;21495;-80
2022/04/19 01:45:48;;;;;;;9.93;5.75;;;;;;;-0.52;64.40;97159.23;1662814;86;21104;-79
2022/04/19 01:48:17;;;;;;;11.40;5.92;;;;;;;-0.52;63.77;97166.62;1657371;86;21068;-80
2022/04/19 01:50:44;;;;;;;15.83;7.22;;;;;;;-0.52;64.53;97169.22;1638231;87;22088;-80
2022/04/19 01:53:14;;;;;;;13.48;6.75;;;;;;;-0.51;65.11;97174.01;1638636;87;21474;-80
2022/04/19 01:55:42;;;;;;;12.43;7.17;;;;;;;-0.58;68.36;97177.88;1637714;88;21489;-80
2022/04/19 01:58:11;;;;;;;12.60;6.53;;;;;;;-0.60;65.68;97180.05;1635748;86;21101;-80
2022/04/19 02:00:39;;;;;;;13.60;6.20;;;;;;;-0.65;67.41;97173.96;1638434;88;21459;-80
2022/04/19 02:03:07;;;;;;;10.63;5.92;;;;;;;-0.70;67.75;97168.77;1656831;86;20993;-80
2022/04/19 02:05:34;;;;;;;12.60;6.55;;;;;;;-0.73;68.10;97177.44;1663678;86;21056;-81
2022/04/19 02:08:02;;;;;;;9.80;5.53;;;;;;;-0.77;68.42;97175.69;1666020;84;21068;-80
2022/04/19 02:10:32;;;;;;;9.93;5.70;;;;;;;-0.77;67.17;97173.50;1678734;85;21063;-81
2022/04/19 02:12:59;;;;;;;9.90;5.70;;;;;;;-0.74;68.19;97176.13;1678811;85;21001;-80
2022/04/19 02:15:32;;;;;;;12.05;5.75;;;;;;;-0.75;66.99;97167.89;1675960;85;21059;-80
2022/04/19 02:18:01;;;;;;;8.45;5.40;;;;;;;-0.71;66.09;97173.09;1650114;87;21068;-81
2022/04/19 02:20:29;;;;;;;11.53;5.75;;;;;;;-0.66;66.36;97171.81;1651014;86;21045;-80
2022/04/19 02:22:55;;;;;;;7.33;5.40;;;;;;;-0.64;66.92;97174.39;1651116;87;21035;-81
2022/04/19 02:25:24;;;;;;;12.28;7.33;;;;;;;-0.62;66.25;97171.38;1670608;85;21020;-81
2022/04/19 02:27:52;;;;;;;10.53;5.40;;;;;;;-0.63;65.90;97165.75;1678578;85;21114;-81
2022/04/19 02:30:20;;;;;;;9.05;5.75;;;;;;;-0.65;66.39;97166.16;1668851;85;21060;-81
2022/04/19 02:32:50;;;;;;;14.15;5.90;;;;;;;-0.67;65.82;97170.93;1650848;86;21112;-81
2022/04/19 02:35:20;;;;;;;12.73;6.22;;;;;;;-0.65;66.53;97172.66;1651019;86;21509;-81
2022/04/19 02:37:54;;;;;;;9.75;6.28;;;;;;;-0.67;66.60;97170.05;1650846;87;21486;-81
2022/04/19 02:40:25;;;;;;;10.48;6.08;;;;;;;-0.71;65.98;97176.14;1651197;86;21068;-81
2022/04/19 02:42:54;;;;;;;12.00;5.70;;;;;;;-0.79;66.35;97176.09;1651001;87;21067;-81
2022/04/19 02:45:23;;;;;;;10.40;5.75;;;;;;;-0.80;65.63;97184.35;1650703;85;21083;-80
2022/04/19 02:48:08;;;;;;;10.78;6.35;;;;;;;-0.86;66.25;97179.14;1678531;85;21095;-80
2022/04/19 02:50:45;;;;;;;8.85;5.70;;;;;;;-0.91;66.59;97179.98;1678274;85;21056;-81
2022/04/19 02:53:13;;;;;;;10.03;6.35;;;;;;;-0.91;65.87;97179.98;1678348;85;21488;-81
2022/04/19 02:55:41;;;;;;;9.20;5.15;;;;;;;-0.95;66.23;97176.06;1678537;85;21134;-81
2022/04/19 02:58:08;;;;;;;10.80;5.55;;;;;;;-1.01;66.76;97181.67;1676334;85;21075;-80
2022/04/19 03:00:38;;;;;;;10.58;5.37;;;;;;;-1.03;66.72;97182.98;1677993;85;21083;-80
2022/04/19 03:03:08;;;;;;;13.15;5.95;;;;;;;-1.07;66.05;97187.28;1678660;85;21051;-80
2022/04/19 03:05:39;;;;;;;8.93;5.20;;;;;;;-1.05;65.84;97183.84;1678536;85;21009;-80
2022/04/19 03:08:07;;;;;;;10.72;5.60;;;;;;;-1.07;65.73;97183.84;1676468;85;21087;-80
2022/04/19 03:10:34;;;;;;;9.33;5.30;;;;;;;-1.13;65.89;97188.58;1629381;87;21072;-80
2022/04/19 03:13:01;;;;;;;9.68;6.15;;;;;;;-1.12;65.74;97184.25;1620993;88;21068;-80
2022/04/19 03:15:34;;;;;;;11.40;5.97;;;;;;;-1.11;65.92;97185.98;1621283;88;21458;-81
2022/04/19 03:17:59;;;;;;;12.93;7.05;;;;;;;-1.12;65.85;97185.55;1620834;88;21521;-81
2022/04/19 03:20:27;;;;;;;10.88;6.30;;;;;;;-1.11;65.62;97188.59;1621312;88;21108;-81
2022/04/19 03:28:25;;;;;;;8.43;6.10;;;;;;;-1.18;66.71;97193.30;1646853;86;21067;-81
2022/04/19 03:30:52;;;;;;;14.68;6.22;;;;;;;-1.18;66.03;97195.48;1647173;87;21020;-81
2022/04/19 03:33:19;;;;;;;10.00;5.72;;;;;;;-1.20;65.80;97192.88;1646044;87;21510;-82
2022/04/19 03:35:45;;;;;;;10.13;6.05;;;;;;;-1.22;65.86;97191.13;1647320;86;21012;-81
2022/04/19 03:38:12;;;;;;;10.72;6.28;;;;;;;-1.24;65.84;97200.67;1646868;86;21423;-81
2022/04/19 03:40:39;;;;;;;11.35;5.65;;;;;;;-1.26;65.88;97200.66;1647555;86;21076;-81
2022/04/19 03:43:08;;;;;;;14.05;6.30;;;;;;;-1.25;65.91;97203.69;1647484;87;21085;-81
2022/04/19 03:45:35;;;;;;;12.40;5.90;;;;;;;-1.26;65.98;97202.38;1646927;87;21042;-81
2022/04/19 03:48:04;;;;;;;9.85;4.70;;;;;;;-1.29;66.00;97202.38;1647894;87;21038;-89
2022/04/19 03:50:30;;;;;;;9.53;5.72;;;;;;;-1.34;66.13;97200.62;1647224;87;21045;-82
2022/04/19 03:52:57;;;;;;;11.73;5.15;;;;;;;-1.28;66.33;97197.19;1646310;87;21094;-82
2022/04/19 03:55:24;;;;;;;12.13;5.47;;;;;;;-1.24;66.22;97204.12;1646900;86;21461;-83
2022/04/19 03:57:51;;;;;;;11.65;6.25;;;;;;;-1.20;66.26;97208.48;1647993;87;21052;-82
2022/04/19 04:00:21;;;;;;;12.25;6.55;;;;;;;-1.14;66.77;97210.66;1646538;86;20969;-83
2022/04/19 04:02:47;;;;;;;13.45;6.87;;;;;;;-1.19;66.85;97204.16;1645831;86;21064;-83
2022/04/19 04:05:17;;;;;;;11.08;5.80;;;;;;;-1.19;66.52;97205.45;1646922;87;21483;-82
2022/04/19 04:07:43;;;;;;;12.05;6.78;;;;;;;-1.15;66.61;97211.53;1647731;87;21040;-83
2022/04/19 04:10:12;;;;;;;13.50;6.78;;;;;;;-1.22;66.51;97205.43;1650192;85;21465;-81
2022/04/19 04:12:39;;;;;;;13.15;6.20;;;;;;;-1.21;66.44;97208.05;1650416;87;21144;-82
2022/04/19 04:15:07;;;;;;;10.98;5.85;;;;;;;-1.20;66.43;97198.53;1650529;87;21035;-80
2022/04/19 04:17:34;;;;;;;12.63;6.45;;;;;;;-1.17;66.61;97206.32;1644400;87;21092;-81
2022/04/19 04:20:00;;;;;;;10.38;5.92;;;;;;;-1.13;66.72;97207.23;1624362;88;21020;-81
2022/04/19 04:22:28;;;;;;;10.48;5.70;;;;;;;-1.10;66.73;97209.82;1610586;87;21050;-77
2022/04/19 04:24:55;;;;;;;10.65;5.92;;;;;;;-1.09;66.97;97213.73;1650020;87;21042;-79
2022/04/19 04:27:22;;;;;;;11.88;6.22;;;;;;;-1.03;66.49;97208.12;1645150;87;21071;-81
2022/04/19 04:29:52;;;;;;;10.70;6.75;;;;;;;-1.01;66.47;97212.88;1646274;87;21093;-81
2022/04/19 04:32:18;;;;;;;11.75;6.45;;;;;;;-1.05;66.34;97214.61;1633642;87;21113;-81
2022/04/19 04:34:45;;;;;;;13.10;6.28;;;;;;;-0.99;66.60;97213.77;1598455;88;21028;-81
2022/04/19 04:37:12;;;;;;;15.88;7.00;;;;;;;-0.96;66.59;97212.47;1623791;88;21076;-81
2022/04/19 04:39:43;;;;;;;13.53;6.85;;;;;;;-0.95;66.41;97213.77;1623574;88;21020;-81
2022/04/19 04:42:25;;;;;;;16.27;7.00;;;;;;;-0.89;66.18;97218.56;1623963;88;21043;-81
2022/04/19 04:44:53;;;;;;;11.28;6.08;;;;;;;-0.85;66.56;97222.50;1624059;88;21059;-81
2022/04/19 04:50:08;;;;;;;10.75;6.33;;;;;;;-0.72;66.35;97219.91;1650502;87;21081;-81
2022/04/19 04:52:35;;;;;;;10.25;5.87;;;;;;;-0.69;66.12;97225.14;1649620;87;21058;-81
2022/04/19 04:55:02;;;;;;;11.60;6.12;;;;;;;-0.63;66.20;97231.66;1650562;87;21412;-82
2022/04/19 04:57:30;;;;;;;13.62;6.67;;;;;;;-0.58;66.13;97227.78;1645016;87;21081;-82
2022/04/19 04:59:57;;;;;;;10.28;6.37;;;;;;;-0.56;65.99;97224.31;1624052;88;20989;-82
2022/04/19 05:02:26;;;;;;;9.60;5.85;;;;;;;-0.48;66.25;97228.23;1623565;88;21446;-82
2022/04/19 05:04:53;;;;;;;12.58;6.45;;;;;;;-0.45;66.01;97233.87;1623655;88;21032;-82
2022/04/19 05:07:21;;;;;;;16.35;6.28;;;;;;;-0.41;65.92;97233.02;1624226;87;21537;-82
2022/04/19 05:09:49;;;;;;;18.98;7.55;;;;;;;-0.34;66.10;97232.61;1636809;87;21051;-82
2022/04/19 05:12:16;;;;;;;12.18;5.85;;;;;;;-0.31;66.11;97232.17;1662129;86;21048;-82
2022/04/19 05:14:43;;;;;;;9.58;5.55;;;;;;;-0.27;66.92;97237.83;1674223;86;21073;-82
2022/04/19 05:17:10;;;;;;;12.07;6.35;;;;;;;-0.24;66.28;97230.87;1674720;86;21438;-82
2022/04/19 05:19:38;;;;;;;10.53;5.67;;;;;;;-0.23;66.07;97235.20;1674010;85;21056;-82
2022/04/19 05:22:05;;;;;;;11.83;5.92;;;;;;;-0.19;66.12;97230.44;1674632;86;21045;-82
2022/04/19 05:24:32;;;;;;;12.40;5.53;;;;;;;-0.12;65.64;97237.41;1674658;86;21016;-82
2022/04/19 05:26:59;;;;;;;12.28;6.17;;;;;;;-0.07;65.59;97233.48;1651937;81;21035;-82
2022/04/19 05:29:25;;;;;;;10.18;5.92;;;;;;;-0.04;65.45;97233.50;1650309;82;21011;-83
2022/04/19 05:31:52;;;;;;;10.98;5.35;;;;;;;0.05;65.37;97237.41;1649968;82;21039;-83
2022/04/19 05:34:19;;;;;;;9.63;5.65;;;;;;;0.11;65.22;97242.62;1650117;81;21032;-82
2022/04/19 05:36:45;;;;;;;11.45;6.20;;;;;;;0.19;64.91;97237.83;1650145;84;21036;-83
2022/04/19 05:39:12;;;;;;;11.18;6.37;;;;;;;0.25;64.91;97237.39;1650956;84;20976;-82
2022/04/19 05:41:40;;;;;;;9.00;5.80;;;;;;;0.33;64.70;97250.87;1650947;84;21085;-82
2022/04/19 05:44:08;;;;;;;13.28;6.22;;;;;;;0.39;64.52;97242.61;1648947;86;21043;-83
2022/04/19 05:46:36;;;;;;;10.45;5.85;;;;;;;0.46;64.42;97239.98;1647687;86;21414;-83
2022/04/19 05:49:06;;;;;;;12.85;6.75;;;;;;;0.52;64.37;97247.38;1647858;87;21417;-83
2022/04/19 05:51:35;;;;;;;19.67;6.80;;;;;;;0.62;64.29;97247.36;1648005;86;21016;-83
2022/04/19 05:54:03;;;;;;;12.45;6.30;;;;;;;0.72;64.17;97244.28;1662803;86;21052;-83
2022/04/19 05:56:30;;;;;;;17.32;7.10;;;;;;;0.81;64.00;97244.26;1675363;86;21012;-83
2022/04/19 05:58:57;;;;;;;12.23;6.28;;;;;;;0.90;64.00;97245.53;1675246;86;21479;-83
2022/04/19 06:01:24;;;;;;;10.60;6.22;;;;;;;1.00;63.85;97250.73;1648021;86;21050;-83
2022/04/19 06:06:39;;;;;;;8.35;5.47;;;;;;;1.16;63.66;97243.72;1675727;86;21036;-83
2022/04/19 06:09:06;;;;;;;9.18;6.03;;;;;;;1.27;63.47;97252.36;1674069;86;21472;-83
2022/04/19 06:11:33;;;;;;;9.68;5.97;;;;;;;1.35;63.29;97238.39;1665080;85;21009;-83
2022/04/19 06:14:00;;;;;;;8.50;5.47;;;;;;;1.45;63.07;97246.60;1638862;87;20992;-83
2022/04/19 06:16:27;;;;;;;10.43;5.00;;;;;;;1.58;62.82;97246.12;1638926;87;21087;-83
2022/04/19 06:18:55;;;;;;;8.90;4.85;;;;;;;1.71;62.57;97243.84;1639053;88;21063;-82
2022/04/19 06:21:23;;;;;;;7.42;4.72;;;;;;;1.84;61.85;97242.02;1651730;86;21087;-82
2022/04/19 06:23:50;;;;;;;5.87;3.87;;;;;;;1.96;61.99;97237.14;1667489;84;21013;-82
2022/04/19 06:26:18;;;;;;;7.80;4.08;;;;;;;2.09;61.22;97234.45;1668142;83;21001;-81
2022/04/19 06:28:45;;;;;;;6.70;4.10;;;;;;;2.20;60.89;97242.22;1642513;84;21009;-82
2022/04/19 06:31:20;;;;;;;4.95;3.33;;;;;;;2.30;59.51;97233.84;1636929;88;21052;-81
2022/04/19 06:33:48;;;;;;;5.72;3.60;;;;;;;2.43;59.52;97231.97;1638188;88;21473;-81
2022/04/19 06:36:17;;;;;;;6.67;3.70;;;;;;;2.55;59.09;97234.48;1638947;86;21013;-81
2022/04/19 06:38:44;;;;;;;6.72;3.52;;;;;;;2.66;59.36;97233.08;1665575;85;20977;-82
2022/04/19 06:41:11;;;;;;;5.70;3.80;;;;;;;2.74;58.93;97231.69;1665438;85;21020;-82
2022/04/19 06:43:38;;;;;;;4.85;3.27;;;;;;;2.85;58.62;97232.86;1665266;86;20989;-82
2022/04/19 06:46:13;;;;;;;;;;;;;;;2.96;58.27;97235.36;1666827;86;21020;-81
2022/04/19 06:48:40;;;;;;;5.80;3.58;;;;;;;3.07;57.76;97240.02;1658127;86;20155;-82
2022/04/19 06:51:09;;;;;;;8.38;4.20;;;;;;;3.14;57.54;97236.89;1638228;87;21141;-82
2022/04/19 06:53:36;;;;;;;31.00;14.20;;;;;;;3.26;56.83;97235.45;1638387;88;21489;-82
2022/04/19 06:56:11;;;;;;;6.87;4.10;;;;;;;3.38;57.09;97234.86;1637184;88;21085;-82
2022/04/19 06:58:39;;;;;;;6.37;3.50;;;;;;;3.48;56.60;97229.07;1638685;87;21512;-82
2022/04/19 07:01:07;;;;;;;6.42;3.75;;;;;;;3.59;56.67;97230.21;1638554;88;21067;-82
2022/04/19 07:03:34;;;;;;;5.87;3.15;;;;;;;3.67;55.61;97229.67;1655691;86;21017;-82
2022/04/19 07:06:07;;;;;;;7.10;3.37;;;;;;;3.76;55.68;97222.11;1665566;85;21082;-82
2022/04/19 07:08:34;;;;;;;6.78;3.08;;;;;;;3.88;54.94;97223.25;1665536;85;21049;-82
2022/04/19 07:11:00;;;;;;;6.35;3.10;;;;;;;4.00;53.58;97223.51;1672535;85;21469;-82
2022/04/19 07:13:39;;;;;;;5.70;3.42;;;;;;;4.09;53.74;97218.13;1673184;86;21048;-82
2022/04/19 07:16:06;;;;;;;4.62;3.30;;;;;;;4.19;54.09;97215.35;1670525;86;21142;-82
2022/04/19 07:18:33;;;;;;;9.08;3.67;;;;;;;4.28;54.02;97211.23;1647412;86;21035;-83
2022/04/19 07:26:45;;;;;;;6.42;3.40;;;;;;;4.60;52.37;97206.31;1647595;87;20989;-82
2022/04/19 07:29:13;;;;;;;7.25;3.95;;;;;;;4.69;51.79;97205.30;1647684;87;21099;-82
2022/04/19 07:31:43;;;;;;;6.22;3.95;;;;;;;4.78;52.70;97214.31;1645830;86;21029;-82
2022/04/19 07:34:12;;;;;;;6.50;3.40;;;;;;;4.85;51.82;97208.04;1673643;86;21204;-82
2022/04/19 07:36:40;;;;;;;4.10;3.10;;;;;;;4.93;51.90;97203.07;1674584;86;21048;-82
2022/04/19 07:39:12;;;;;;;5.10;3.20;;;;;;;4.99;50.96;97209.07;1674742;86;21084;-82
2022/04/19 07:41:46;;;;;;;7.70;4.00;;;;;;;5.15;49.16;97211.41;1674913;86;21108;-82
2022/04/19 07:44:15;;;;;;;4.60;2.87;;;;;;;5.24;49.69;97199.38;1665677;85;21004;-82
2022/04/19 07:46:43;;;;;;;4.40;2.95;;;;;;;5.32;49.45;97196.61;1647318;87;21481;-82
2022/04/19 07:49:10;;;;;;;3.90;2.77;;;;;;;5.39;49.13;97195.56;1695303;84;21061;-82
2022/04/19 07:51:37;;;;;;;3.95;3.00;;;;;;;5.50;47.27;97191.84;1680912;85;21015;-82
2022/04/19 07:54:04;;;;;;;4.20;2.92;;;;;;;5.58;46.91;97186.41;1680956;85;21022;-82
2022/04/19 07:56:32;;;;;;;4.35;2.87;;;;;;;5.66;47.57;97180.53;1681015;85;21082;-82
2022/04/19 07:58:58;;;;;;;4.35;3.00;;;;;;;5.73;47.58;97179.95;1690591;84;20968;-82
2022/04/19 08:01:26;;;;;;;3.83;2.60;;;;;;;5.78;47.57;97180.23;1697473;84;21021;-82
2022/04/19 08:03:53;;;;;;;5.00;2.15;;;;;;;5.86;47.05;97185.77;1697256;84;21012;-82
2022/04/19 08:06:19;;;;;;;4.30;2.20;;;;;;;5.94;46.55;97178.11;1668909;86;21056;-82
2022/04/19 08:08:46;;;;;;;4.75;2.35;;;;;;;6.04;46.44;97174.85;1697008;84;21493;-82
2022/04/19 08:11:13;;;;;;;3.37;2.17;;;;;;;6.12;44.71;97168.08;1685997;84;21483;-82
2022/04/19 08:13:40;;;;;;;4.25;2.47;;;;;;;6.21;45.83;97172.23;1647110;85;21057;-82
2022/04/19 08:16:08;;;;;;;3.55;2.47;;;;;;;6.26;44.83;97169.47;1654782;87;21068;-82
2022/04/19 08:18:34;;;;;;;3.75;2.10;;;;;;;6.30;45.11;97169.38;1654720;87;21069;-82
2022/04/19 08:21:02;;;;;;;4.03;2.60;;;;;;;6.36;45.11;97168.36;1654866;87;21112;-82
2022/04/19 08:23:30;;;;;;;6.75;3.10;;;;;;;6.45;45.37;97173.36;1654560;87;21452;-82
2022/04/19 08:25:58;;;;;;;3.27;2.35;;;;;;;6.54;43.33;97171.40;1662884;85;21566;-82
2022/04/19 08:28:25;;;;;;;6.10;2.47;;;;;;;6.67;40.69;97174.12;1654532;86;21010;-82
2022/04/19 08:30:51;;;;;;;2.80;2.30;;;;;;;6.75;39.41;97162.05;1654942;87;21451;-82
2022/04/19 08:33:20;;;;;;;2.70;2.10;;;;;;;6.91;37.51;97164.26;1627637;88;20989;-82
2022/04/19 08:35:47;;;;;;;4.47;2.45;;;;;;;7.00;38.68;97165.31;1628049;87;21083;-82
2022/04/19 08:38:14;;;;;;;6.15;3.95;;;;;;;7.13;38.62;97163.19;1654508;87;21006;-82
2022/04/19 08:40:40;;;;;;;6.12;3.35;;;;;;;7.33;38.73;97164.37;1673655;85;21041;-82
2022/04/19 08:43:07;;;;;;;3.12;2.10;;;;;;;7.50;39.87;97166.05;1681873;85;21029;-82
2022/04/19 08:45:34;;;;;;;2.50;2.00;;;;;;;7.63;39.27;97163.02;1682070;85;21112;-82
2022/04/19 08:48:01;;;;;;;4.58;2.35;;;;;;;7.79;37.00;97159.01;1682470;85;21005;-82
2022/04/19 08:50:29;;;;;;;2.60;1.98;;;;;;;7.89;38.71;97157.39;1682220;85;21084;-82
2022/04/19 08:58:30;;;;;;;2.98;2.17;;;;;;;8.29;36.31;97145.95;1682387;85;21084;-83
2022/04/19 09:00:56;;;;;;;2.83;1.85;;;;;;;8.46;37.07;97140.09;1682185;85;21092;-82
2022/04/19 09:03:23;;;;;;;2.52;1.80;;;;;;;8.62;36.01;97135.17;1682211;85;21434;-83
2022/04/19 09:05:52;;;;;;;3.72;1.90;;;;;;;8.81;34.07;97139.32;1681740;85;21037;-83
2022/04/19 09:08:20;;;;;;;2.00;1.62;;;;;;;8.94;34.19;97142.41;1666218;85;21277;-83
2022/04/19 09:10:47;;;;;;;4.03;1.70;;;;;;;9.02;34.89;97141.25;1631295;86;21084;-83
2022/04/19 09:13:21;;;;;;;2.15;1.50;;;;;;;9.06;34.86;97139.73;1649371;86;21070;-83
2022/04/19 09:15:49;;;;;;;2.47;1.80;;;;;;;9.14;35.62;97135.52;1647459;87;21985;-83
2022/04/19 09:18:29;;;;;;;2.95;2.05;;;;;;;9.13;30.89;97137.73;1647433;87;21426;-83
2022/04/19 09:20:55;;;;;;;3.75;1.80;;;;;;;8.95;32.50;97136.64;1651320;86;21450;-83
2022/04/19 09:23:22;;;;;;;3.33;1.98;;;;;;;8.90;33.11;97132.86;1674550;86;21048;-82
2022/04/19 09:25:54;;;;;;;2.17;1.65;;;;;;;8.84;33.28;97133.06;1674940;85;21044;-83
2022/04/19 09:28:26;;;;;;;3.27;2.40;;;;;;;8.81;33.33;97128.75;1674636;86;21418;-83
2022/04/19 09:30:59;;;;;;;3.17;2.25;;;;;;;8.82;33.53;97129.19;1674630;85;21108;-83
2022/04/19 09:33:29;;;;;;;3.20;2.17;;;;;;;8.81;33.48;97134.52;1674940;85;21012;-83
2022/04/19 09:35:59;;;;;;;2.52;2.02;;;;;;;8.81;32.89;97135.36;1657196;86;21090;-83
2022/04/19 09:38:46;;;;;;;2.33;1.80;;;;;;;8.82;32.86;97130.50;1647363;87;21039;-83
2022/04/19 09:41:32;;;;;;;2.80;2.00;;;;;;;8.84;32.07;97131.30;1647457;87;21580;-83
2022/04/19 09:44:11;;;;;;;2.10;1.87;;;;;;;8.98;33.11;97128.13;1647823;86;20999;-83
2022/04/19 09:46:38;;;;;;;3.95;2.30;;;;;;;9.26;33.92;97124.06;1647273;87;21047;-83
2022/04/19 09:49:06;;;;;;;4.37;2.00;;;;;;;9.56;33.80;97122.02;1658730;86;21424;-83
2022/04/19 09:51:35;;;;;;;2.95;1.77;;;;;;;9.85;33.61;97120.44;1674441;85;21072;-82
2022/04/19 09:54:02;;;;;;;2.37;1.80;;;;;;;9.95;29.14;97123.55;1673928;85;21423;-82
2022/04/19 09:56:38;;;;;;;2.25;2.02;;;;;;;10.04;32.36;97111.27;1674308;86;21107;-82
2022/04/19 09:59:05;;;;;;;3.27;2.10;;;;;;;10.22;31.78;97114.07;1674601;85;21065;-82
2022/04/19 10:09:34;;;;;;;2.25;1.85;;;;;;;10.89;29.72;97112.54;1648247;87;21031;-82
2022/04/19 10:12:03;;;;;;;3.00;2.12;;;;;;;11.07;30.00;97107.73;1652809;86;21021;-82
2022/04/19 10:14:31;;;;;;;2.87;2.22;;;;;;;11.30;30.44;97103.62;1656696;86;21509;-82
2022/04/19 10:17:00;;;;;;;2.70;2.25;;;;;;;11.70;31.04;97108.34;1656357;86;21041;-83
2022/04/19 10:19:28;;;;;;;4.00;1.75;;;;;;;11.73;27.12;97096.27;1674298;86;21540;-83
2022/04/19 10:22:01;;;;;;;2.42;1.98;;;;;;;11.67;29.57;97106.31;1674082;86;21068;-83
2022/04/19 10:24:29;;;;;;;4.20;1.90;;;;;;;11.75;29.57;97097.03;1674099;86;21009;-82
2022/04/19 10:26:55;;;;;;;2.70;1.98;;;;;;;11.82;27.20;97104.23;1674452;86;21096;-82
2022/04/19 10:29:28;;;;;;;2.50;1.70;;;;;;;11.53;26.31;97111.80;1674497;86;21016;-82
2022/04/19 10:31:59;;;;;;;1.90;1.70;;;;;;;11.43;29.20;97107.88;1671109;86;21438;-82
2022/04/19 10:34:28;;;;;;;5.03;2.15;;;;;;;11.54;30.22;97101.58;1674614;86;21091;-82
2022/04/19 10:37:01;;;;;;;4.80;2.30;;;;;;;11.67;30.33;97106.31;1674650;86;21107;-82
2022/04/19 10:39:32;;;;;;;2.65;1.92;;;;;;;11.67;27.86;97112.45;1673877;86;21012;-82
2022/04/19 10:42:03;;;;;;;2.77;2.00;;;;;;;11.62;27.93;97115.35;1674846;86;21032;-82
2022/04/19 10:44:44;;;;;;;2.33;2.00;;;;;;;11.47;27.65;97109.45;1653060;86;21046;-82
2022/04/19 10:47:20;;;;;;;2.58;1.87;;;;;;;11.16;27.62;97108.22;1647847;87;21019;-82
2022/04/19 10:49:59;;;;;;;2.83;2.17;;;;;;;11.22;29.09;97110.61;1649050;87;21016;-82
2022/04/19 10:52:43;;;;;;;2.98;1.98;;;;;;;11.28;29.45;97108.98;1650395;82;21051;-83
2022/04/19 10:55:23;;;;;;;3.02;1.98;;;;;;;11.39;29.81;97107.63;1664565;82;21052;-83
2022/04/19 10:58:06;;;;;;;4.85;2.95;;;;;;;11.56;30.14;97110.80;1675564;86;21072;-83
2022/04/19 11:00:56;;;;;;;9.63;6.20;;;;;;;11.58;30.38;97112.90;1674827;86;21480;-81
2022/04/19 11:03:34;;;;;;;2.17;1.98;;;;;;;11.65;30.40;97111.69;1674765;86;21184;-82
2022/04/19 11:06:04;;;;;;;2.95;2.02;;;;;;;11.69;29.14;97118.57;1675014;86;21012;-82
2022/04/19 11:08:38;;;;;;;2.65;2.10;;;;;;;11.56;28.46;97116.98;1663979;86;21398;-82
2022/04/19 11:11:21;;;;;;;2.08;1.80;;;;;;;11.47;27.84;97113.44;1644671;86;21061;-82
2022/04/19 11:14:31;;;;;;;3.70;2.00;;;;;;;11.80;28.46;97118.52;1638332;88;20972;-82
2022/04/19 11:17:28;;;;;;;3.37;1.95;;;;;;;12.06;27.97;97108.42;1638246;87;21469;-82
2022/04/19 11:20:14;;;;;;;4.12;2.20;;;;;;;12.17;27.36;97113.20;1642067;86;21044;-82
2022/04/19 11:22:55;;;;;;;2.08;1.70;;;;;;;12.18;28.39;97110.48;1665506;86;21040;-82
2022/04/19 11:25:39;;;;;;;2.20;1.77;;;;;;;12.37;28.25;97110.39;1665236;85;21049;-82
2022/04/19 11:28:12;;;;;;;2.33;1.75;;;;;;;13.11;28.14;97107.45;1662472;86;21378;-82
2022/04/19 11:30:52;;;;;;;2.42;1.80;;;;;;;13.30;27.85;97096.68;1637902;88;21079;-82
2022/04/19 11:33:33;;;;;;;3.05;2.02;;;;;;;13.25;26.71;97098.70;1636520;88;21028;-83
2022/04/19 11:36:08;;;;;;;3.15;1.87;;;;;;;12.98;28.19;97088.64;1638352;88;21087;-83
2022/04/19 11:38:45;;;;;;;3.60;2.20;;;;;;;12.93;28.94;97090.23;1638494;87;21020;-83
2022/04/19 11:46:46;;;;;;;2.77;1.87;;;;;;;12.60;27.87;97088.87;1665389;86;21009;-81
2022/04/19 11:49:30;;;;;;;3.65;2.00;;;;;;;12.07;27.46;97081.80;1665294;85;21056;-81
2022/04/19 11:52:04;;;;;;;3.67;2.20;;;;;;;11.89;27.47;97084.88;1664199;86;21076;-82
2022/04/19 11:54:32;;;;;;;2.43;1.80;;;;;;;11.75;28.49;97083.76;1637933;87;21063;-82
2022/04/19 11:57:06;;;;;;;2.72;2.00;;;;;;;11.67;28.85;97087.25;1638286;88;22246;-82
2022/04/19 11:59:43;;;;;;;2.92;1.80;;;;;;;11.59;28.89;97090.27;1638291;88;21512;-82
2022/04/19 12:02:19;;;;;;;2.58;1.80;;;;;;;11.58;28.60;97087.69;1638407;86;21048;-82
2022/04/19 12:05:02;;;;;;;2.22;1.60;;;;;;;11.73;29.57;97078.13;1638530;88;21011;-82
2022/04/19 12:07:26;;;;;;;3.02;2.05;;;;;;;12.07;29.37;97071.63;1657168;86;21530;-82
2022/04/19 12:09:53;;;;;;;1.62;1.50;;;;;;;12.81;29.03;97074.92;1665441;86;21072;-82
2022/04/19 12:12:20;;;;;;;6.50;2.67;;;;;;;12.88;28.23;97070.98;1671638;85;21493;-82
2022/04/19 12:14:52;;;;;;;2.20;1.90;;;;;;;12.76;28.63;97071.20;1674623;86;21024;-82
2022/04/19 12:17:22;;;;;;;2.85;2.10;;;;;;;12.68;28.90;97062.77;1674649;86;21449;-82
2022/04/19 12:20:04;;;;;;;2.12;1.50;;;;;;;12.59;28.87;97065.91;1674766;86;21477;-82
2022/04/19 12:22:36;;;;;;;3.20;1.95;;;;;;;12.39;28.57;97062.49;1647694;86;21500;-82